createdAt,value
2022-08-02T00:00:55.647Z,19.90
2022-08-02T00:03:24.621Z,19.80
2022-08-02T00:05:53.430Z,19.80
2022-08-02T00:08:21.543Z,19.80
2022-08-02T00:10:48.844Z,19.70
2022-08-02T00:13:15.938Z,19.70
2022-08-02T00:15:42.982Z,19.60
2022-08-02T00:18:10.070Z,19.60
2022-08-02T00:20:37.261Z,19.60
2022-08-02T00:23:04.278Z,19.50
2022-08-02T00:25:31.377Z,19.50
2022-08-02T00:27:58.406Z,19.50
2022-08-02T00:30:25.528Z,19.40
2022-08-02T00:32:52.644Z,19.30
2022-08-02T00:35:19.953Z,19.20
2022-08-02T00:37:47.121Z,19.10
2022-08-02T00:40:14.327Z,19.00
2022-08-02T00:42:41.676Z,19.00
2022-08-02T00:45:09.292Z,18.90
2022-08-02T00:47:36.413Z,18.90
2022-08-02T00:50:04.757Z,18.80
2022-08-02T00:52:31.905Z,18.70
2022-08-02T00:54:58.932Z,18.80
2022-08-02T00:57:25.977Z,18.80
2022-08-02T00:59:52.984Z,18.80
2022-08-02T01:02:20.074Z,18.80
2022-08-02T01:04:47.185Z,18.70
2022-08-02T01:07:14.699Z,18.70
2022-08-02T01:09:45.881Z,18.60
2022-08-02T01:12:13.939Z,18.60
2022-08-02T01:14:43.530Z,18.60
2022-08-02T01:17:34.477Z,18.50
2022-08-02T01:20:34.124Z,18.40
2022-08-02T01:23:53.834Z,18.40
2022-08-02T01:26:53.294Z,18.40
2022-08-02T01:29:34.611Z,18.40
2022-08-02T01:32:10.925Z,18.50
2022-08-02T01:34:50.794Z,18.50
2022-08-02T01:37:41.019Z,18.40
2022-08-02T01:40:12.203Z,18.30
2022-08-02T01:42:46.200Z,18.30
2022-08-02T01:45:14.948Z,18.20
2022-08-02T01:47:44.578Z,18.20
2022-08-02T01:50:15.662Z,18.20
2022-08-02T01:52:53.459Z,18.10
2022-08-02T01:55:33.701Z,18.00
2022-08-02T01:58:16.879Z,18.00
2022-08-02T02:00:45.065Z,18.00
2022-08-02T02:03:19.884Z,17.90
2022-08-02T02:05:52.171Z,17.80
2022-08-02T02:08:27.271Z,17.80
2022-08-02T02:10:56.770Z,17.80
2022-08-02T02:13:33.307Z,17.80
2022-08-02T02:16:04.925Z,17.80
2022-08-02T02:18:39.110Z,17.80
2022-08-02T02:21:06.655Z,17.70
2022-08-02T02:23:35.457Z,17.70
2022-08-02T02:26:05.252Z,17.60
2022-08-02T02:28:35.396Z,17.60
2022-08-02T02:31:18.401Z,17.60
2022-08-02T02:34:25.821Z,17.50
2022-08-02T02:36:53.610Z,17.50
2022-08-02T02:39:26.033Z,17.50
2022-08-02T02:41:55.162Z,17.40
2022-08-02T02:44:22.947Z,17.50
2022-08-02T02:46:53.637Z,17.50
2022-08-02T02:49:23.082Z,17.70
2022-08-02T02:51:51.445Z,17.60
2022-08-02T02:54:33.118Z,17.50
2022-08-02T02:57:02.876Z,17.50
2022-08-02T02:59:30.324Z,17.50
2022-08-02T03:01:58.875Z,17.40
2022-08-02T03:04:56.486Z,17.30
2022-08-02T03:07:15.622Z,17.30
2022-08-02T03:09:42.720Z,17.40
2022-08-02T03:12:10.759Z,17.40
2022-08-02T03:14:43.307Z,17.20
2022-08-02T03:17:10.338Z,17.20
2022-08-02T03:19:37.886Z,17.10
2022-08-02T03:22:04.964Z,17.10
2022-08-02T03:24:32.683Z,17.20
2022-08-02T03:26:59.910Z,17.20
2022-08-02T03:29:29.457Z,17.10
2022-08-02T03:31:58.751Z,17.10
2022-08-02T03:34:25.915Z,17.10
2022-08-02T03:36:56.088Z,17.10
2022-08-02T03:39:23.947Z,17.10
2022-08-02T03:41:51.291Z,17.10
2022-08-02T03:44:19.721Z,17.10
2022-08-02T03:46:47.265Z,17.10
2022-08-02T03:49:16.877Z,17.10
2022-08-02T03:51:45.540Z,17.10
2022-08-02T03:54:13.781Z,17.00
2022-08-02T03:56:41.082Z,17.00
2022-08-02T03:59:14.271Z,17.00
2022-08-02T04:01:41.744Z,16.90
2022-08-02T04:04:09.302Z,16.90
2022-08-02T04:06:40.155Z,16.90
2022-08-02T04:09:09.390Z,16.90
2022-08-02T04:11:37.923Z,16.90
2022-08-02T04:14:08.226Z,16.90
2022-08-02T04:16:52.613Z,16.90
2022-08-02T04:19:43.788Z,17.00
2022-08-02T04:22:16.593Z,17.00
2022-08-02T04:24:49.919Z,17.10
2022-08-02T04:27:49.335Z,17.20
2022-08-02T04:30:07.837Z,17.10
2022-08-02T04:32:35.809Z,17.30
2022-08-02T04:35:19.944Z,17.30
2022-08-02T04:38:08.167Z,17.30
2022-08-02T04:40:34.909Z,17.30
2022-08-02T04:43:02.004Z,17.30
2022-08-02T04:45:30.825Z,17.40
2022-08-02T04:48:06.075Z,17.50
2022-08-02T04:50:34.235Z,17.50
2022-08-02T04:53:01.313Z,17.60
2022-08-02T04:55:29.348Z,17.70
2022-08-02T04:57:58.093Z,17.70
2022-08-02T05:00:27.245Z,17.80
2022-08-02T05:02:57.778Z,17.80
2022-08-02T05:05:25.168Z,17.90
2022-08-02T05:07:52.290Z,18.00
2022-08-02T05:10:19.828Z,18.10
2022-08-02T05:12:46.918Z,18.10
2022-08-02T05:15:16.658Z,18.10
2022-08-02T05:17:48.270Z,18.20
2022-08-02T05:20:17.447Z,18.30
2022-08-02T05:22:44.572Z,18.40
2022-08-02T05:25:11.977Z,18.50
2022-08-02T05:27:39.055Z,18.60
2022-08-02T05:30:07.312Z,18.60
2022-08-02T05:32:34.637Z,18.70
2022-08-02T05:35:02.599Z,18.90
2022-08-02T05:37:32.224Z,19.10
2022-08-02T05:40:01.083Z,19.20
2022-08-02T05:42:32.028Z,19.20
2022-08-02T05:44:59.748Z,19.20
2022-08-02T05:47:26.814Z,19.30
2022-08-02T05:49:53.940Z,19.40
2022-08-02T05:52:24.594Z,19.40
2022-08-02T05:55:07.264Z,19.30
2022-08-02T05:58:08.144Z,19.30
2022-08-02T06:00:36.589Z,19.30
2022-08-02T06:03:16.951Z,19.50
2022-08-02T06:06:14.376Z,19.60
2022-08-02T06:08:51.043Z,19.80
2022-08-02T06:11:22.295Z,19.90
2022-08-02T06:13:49.938Z,20.00
2022-08-02T06:16:18.017Z,19.90
2022-08-02T06:19:00.335Z,19.80
2022-08-02T06:22:30.587Z,19.90
2022-08-02T06:24:19.408Z,19.90
2022-08-02T06:26:52.591Z,20.00
2022-08-02T06:29:23.200Z,20.10
2022-08-02T06:31:53.453Z,20.20
2022-08-02T06:34:20.522Z,20.30
2022-08-02T06:37:00.177Z,20.40
2022-08-02T06:39:59.819Z,20.20
2022-08-02T06:42:38.535Z,20.30
2022-08-02T06:45:06.192Z,20.10
2022-08-02T06:47:33.953Z,20.20
2022-08-02T06:50:01.122Z,20.30
2022-08-02T06:52:31.249Z,20.40
2022-08-02T06:55:03.560Z,20.60
2022-08-02T06:57:32.670Z,20.90
2022-08-02T07:00:02.488Z,20.90
2022-08-02T07:02:31.040Z,21.20
2022-08-02T07:04:58.346Z,21.50
2022-08-02T07:07:26.215Z,21.70
2022-08-02T07:09:56.239Z,21.70
2022-08-02T07:12:30.170Z,22.20
2022-08-02T07:14:58.549Z,22.50
2022-08-02T07:17:25.767Z,22.40
2022-08-02T07:19:52.886Z,22.40
2022-08-02T07:22:23.231Z,22.20
2022-08-02T07:27:18.422Z,22.40
2022-08-02T07:29:47.207Z,22.40
2022-08-02T07:32:19.183Z,22.20
2022-08-02T07:34:51.334Z,22.20
2022-08-02T07:37:53.051Z,22.20
2022-08-02T07:40:15.257Z,22.70
2022-08-02T07:42:57.737Z,22.90
2022-08-02T07:45:30.308Z,22.80
2022-08-02T07:47:57.364Z,23.20
2022-08-02T07:50:24.591Z,23.20
2022-08-02T07:52:57.122Z,23.20
2022-08-02T07:55:40.110Z,23.50
2022-08-02T07:58:11.983Z,23.70
2022-08-02T08:00:42.238Z,23.70
2022-08-02T08:03:09.339Z,23.80
2022-08-02T08:05:37.021Z,23.60
2022-08-02T08:08:06.074Z,23.60
2022-08-02T08:10:33.392Z,24.20
2022-08-02T08:13:00.454Z,24.40
2022-08-02T08:15:27.542Z,23.80
2022-08-02T08:17:54.608Z,24.10
2022-08-02T08:20:21.764Z,24.50
2022-08-02T08:22:50.218Z,24.50
2022-08-02T08:25:17.256Z,24.50
2022-08-02T08:27:52.122Z,24.20
2022-08-02T08:30:22.075Z,24.20
2022-08-02T08:32:49.198Z,24.40
2022-08-02T08:35:16.771Z,24.40
2022-08-02T08:37:44.089Z,24.60
2022-08-02T08:40:12.207Z,25.10
2022-08-02T08:42:39.968Z,25.30
2022-08-02T08:45:08.974Z,25.40
2022-08-02T08:47:41.007Z,25.40
2022-08-02T08:50:18.844Z,25.30
2022-08-02T08:53:08.844Z,25.00
2022-08-02T08:55:39.642Z,24.90
2022-08-02T08:58:06.877Z,25.40
2022-08-02T09:00:36.627Z,25.20
2022-08-02T09:03:05.994Z,25.40
2022-08-02T09:05:35.914Z,25.40
2022-08-02T09:08:03.687Z,25.60
2022-08-02T09:10:45.366Z,25.60
2022-08-02T09:13:38.838Z,26.10
2022-08-02T09:16:12.751Z,25.80
2022-08-02T09:18:45.750Z,25.60
2022-08-02T09:21:15.325Z,26.70
2022-08-02T09:23:47.901Z,26.80
2022-08-02T09:26:22.849Z,27.00
2022-08-02T09:28:52.573Z,26.40
2022-08-02T09:31:24.460Z,26.60
2022-08-02T09:33:56.781Z,27.00
2022-08-02T09:36:25.133Z,28.10
2022-08-02T09:39:04.336Z,27.80
2022-08-02T09:41:34.617Z,27.30
2022-08-02T09:44:06.379Z,27.60
2022-08-02T09:46:39.682Z,28.20
2022-08-02T09:49:13.314Z,28.30
2022-08-02T09:51:51.181Z,28.40
2022-08-02T09:54:27.653Z,27.60
2022-08-02T09:57:00.215Z,27.70
2022-08-02T09:59:28.744Z,27.50
2022-08-02T10:02:01.523Z,27.60
2022-08-02T10:04:32.072Z,27.40
2022-08-02T10:07:05.430Z,27.50
2022-08-02T10:09:33.235Z,28.30
2022-08-02T10:12:01.314Z,28.20
2022-08-02T10:14:28.477Z,28.10
2022-08-02T10:16:57.511Z,28.40
2022-08-02T10:20:01.732Z,29.00
2022-08-02T10:22:15.419Z,29.10
2022-08-02T10:24:48.036Z,29.10
2022-08-02T10:27:21.192Z,28.50
2022-08-02T10:29:55.326Z,29.00
2022-08-02T10:32:43.025Z,29.90
2022-08-02T10:35:20.002Z,30.20
2022-08-02T10:38:01.410Z,30.30
2022-08-02T10:40:45.681Z,29.60
2022-08-02T10:43:14.179Z,30.00
2022-08-02T10:45:41.260Z,30.90
2022-08-02T10:48:14.750Z,31.40
2022-08-02T10:51:08.328Z,31.20
2022-08-02T10:53:36.909Z,30.40
2022-08-02T10:56:06.283Z,30.20
2022-08-02T10:58:36.577Z,30.30
2022-08-02T11:01:06.229Z,29.90
2022-08-02T11:03:40.435Z,29.30
2022-08-02T11:06:25.446Z,29.40
2022-08-02T11:09:33.446Z,29.50
2022-08-02T11:12:22.244Z,29.90
2022-08-02T11:15:01.327Z,29.50
2022-08-02T11:17:38.071Z,30.10
2022-08-02T11:20:16.290Z,31.40
2022-08-02T11:22:45.028Z,30.10
2022-08-02T11:26:03.248Z,30.10
2022-08-02T11:28:32.695Z,30.10
2022-08-02T11:31:02.913Z,31.50
2022-08-02T11:33:34.356Z,32.40
2022-08-02T11:36:04.026Z,32.30
2022-08-02T11:38:31.159Z,31.50
2022-08-02T11:40:58.432Z,32.80
2022-08-02T11:43:27.471Z,33.50
2022-08-02T11:45:56.270Z,33.20
2022-08-02T11:48:35.290Z,33.20
2022-08-02T11:51:13.511Z,33.10
2022-08-02T11:53:53.306Z,34.80
2022-08-02T11:56:32.637Z,33.60
2022-08-02T11:59:07.792Z,32.00
2022-08-02T12:01:42.026Z,31.80
2022-08-02T12:04:17.067Z,33.70
2022-08-02T12:06:44.318Z,34.60
2022-08-02T12:09:18.177Z,35.10
2022-08-02T12:11:50.547Z,34.50
2022-08-02T12:14:18.115Z,33.20
2022-08-02T12:17:03.615Z,33.40
2022-08-02T12:19:30.893Z,33.40
2022-08-02T12:22:27.799Z,33.00
2022-08-02T12:24:57.517Z,32.20
2022-08-02T12:27:36.770Z,32.10
2022-08-02T12:30:12.414Z,32.50
2022-08-02T12:32:40.161Z,31.50
2022-08-02T12:35:26.762Z,31.40
2022-08-02T12:37:54.494Z,33.00
2022-08-02T12:40:27.144Z,33.00
2022-08-02T12:43:01.704Z,33.00
2022-08-02T12:45:39.973Z,32.30
2022-08-02T12:48:09.344Z,33.20
2022-08-02T12:50:37.928Z,33.60
2022-08-02T12:53:16.294Z,34.50
2022-08-02T12:56:01.221Z,35.30
2022-08-02T12:58:31.657Z,35.40
2022-08-02T13:01:00.982Z,34.50
2022-08-02T13:04:12.150Z,34.20
2022-08-02T13:06:39.709Z,35.40
2022-08-02T13:09:13.585Z,35.00
2022-08-02T13:11:42.935Z,34.20
2022-08-02T13:14:10.154Z,32.30
2022-08-02T13:16:37.176Z,32.30
2022-08-02T13:19:04.272Z,32.70
2022-08-02T13:21:41.071Z,33.80
2022-08-02T13:24:38.066Z,33.60
2022-08-02T13:27:08.021Z,32.10
2022-08-02T13:29:39.671Z,32.00
2022-08-02T13:32:06.908Z,33.50
2022-08-02T13:34:34.058Z,35.40
2022-08-02T13:37:01.279Z,34.10
2022-08-02T13:39:28.364Z,34.60
2022-08-02T13:41:55.437Z,32.40
2022-08-02T13:44:22.641Z,32.50
2022-08-02T13:46:49.720Z,32.60
2022-08-02T13:49:19.866Z,33.50
2022-08-02T13:51:47.914Z,33.40
2022-08-02T13:54:16.056Z,32.70
2022-08-02T13:56:43.241Z,33.10
2022-08-02T13:59:54.808Z,34.90
2022-08-02T14:01:58.961Z,34.60
2022-08-02T14:09:21.576Z,33.60
2022-08-02T14:11:49.262Z,33.90
2022-08-02T14:14:17.462Z,33.80
2022-08-02T14:16:45.460Z,34.10
2022-08-02T14:19:15.850Z,33.40
2022-08-02T14:21:46.933Z,33.60
2022-08-02T14:24:15.269Z,35.50
2022-08-02T14:26:42.763Z,35.50
2022-08-02T14:29:10.014Z,35.30
2022-08-02T14:31:43.302Z,36.50
2022-08-02T14:34:11.372Z,36.40
2022-08-02T14:36:39.230Z,36.70
2022-08-02T14:39:06.510Z,36.60
2022-08-02T14:41:58.083Z,36.60
2022-08-02T14:44:24.070Z,36.00
2022-08-02T14:46:52.322Z,37.10
2022-08-02T14:49:26.028Z,36.20
2022-08-02T14:51:57.052Z,33.80
2022-08-02T14:54:30.381Z,34.00
2022-08-02T14:57:03.212Z,34.90
2022-08-02T14:59:31.166Z,34.90
2022-08-02T15:01:59.234Z,36.40
2022-08-02T15:04:26.915Z,35.80
2022-08-02T15:06:54.904Z,33.30
2022-08-02T15:09:22.384Z,32.90
2022-08-02T15:11:49.862Z,34.20
2022-08-02T15:14:20.387Z,34.70
2022-08-02T15:16:56.984Z,35.30
2022-08-02T15:19:56.197Z,35.90
2022-08-02T15:22:19.533Z,36.10
2022-08-02T15:24:48.263Z,37.40
2022-08-02T15:27:16.074Z,36.60
2022-08-02T15:29:44.852Z,34.20
2022-08-02T15:32:13.123Z,34.10
2022-08-02T15:34:40.608Z,34.00
2022-08-02T15:37:07.846Z,34.40
2022-08-02T15:39:34.910Z,33.10
2022-08-02T15:42:02.158Z,32.90
2022-08-02T15:44:29.411Z,33.70
2022-08-02T15:46:56.518Z,35.50
2022-08-02T15:49:24.804Z,35.00
2022-08-02T15:51:52.979Z,34.90
2022-08-02T15:54:20.753Z,36.10
2022-08-02T15:56:47.946Z,36.10
2022-08-02T15:59:15.033Z,34.10
2022-08-02T16:01:46.668Z,34.00
2022-08-02T16:04:15.309Z,34.90
2022-08-02T16:06:43.104Z,35.50
2022-08-02T16:09:10.291Z,35.90
2022-08-02T16:11:37.363Z,34.30
2022-08-02T16:14:04.540Z,34.00
2022-08-02T16:16:33.561Z,34.20
2022-08-02T16:19:46.317Z,35.00
2022-08-02T16:21:50.442Z,36.50
2022-08-02T16:24:17.710Z,36.00
2022-08-02T16:26:44.815Z,34.00
2022-08-02T16:29:12.057Z,34.20
2022-08-02T16:31:42.449Z,35.30
2022-08-02T16:34:10.329Z,35.30
2022-08-02T16:36:37.726Z,35.60
2022-08-02T16:39:05.645Z,33.90
2022-08-02T16:41:50.266Z,34.80
2022-08-02T16:44:29.624Z,34.70
2022-08-02T16:47:01.838Z,33.70
2022-08-02T16:50:04.865Z,33.60
2022-08-02T16:52:19.082Z,33.50
2022-08-02T16:54:49.505Z,33.20
2022-08-02T16:57:19.774Z,33.40
2022-08-02T16:59:59.615Z,33.00
2022-08-02T17:02:27.897Z,33.20
2022-08-02T17:04:55.516Z,33.40
2022-08-02T17:08:07.723Z,33.80
2022-08-02T17:10:11.706Z,32.90
2022-08-02T17:12:40.002Z,34.10
2022-08-02T17:16:15.787Z,33.70
2022-08-02T17:17:55.783Z,33.30
2022-08-02T17:20:24.553Z,32.40
2022-08-02T17:22:52.179Z,32.50
2022-08-02T17:25:19.943Z,31.80
2022-08-02T17:27:47.109Z,32.40
2022-08-02T17:30:26.796Z,32.20
2022-08-02T17:32:57.495Z,32.30
2022-08-02T17:35:43.173Z,31.60
2022-08-02T17:38:10.999Z,31.50
2022-08-02T17:40:44.934Z,31.50
2022-08-02T17:43:14.306Z,31.20
2022-08-02T17:46:00.834Z,30.90
2022-08-02T17:48:49.191Z,31.00
2022-08-02T17:52:14.797Z,31.00
2022-08-02T17:54:03.728Z,30.80
2022-08-02T17:56:30.838Z,30.50
2022-08-02T17:59:10.572Z,30.80
2022-08-02T18:01:49.186Z,30.60
2022-08-02T18:04:19.937Z,30.60
2022-08-02T18:06:59.703Z,30.80
2022-08-02T18:09:31.825Z,30.30
2022-08-02T18:11:58.857Z,29.80
2022-08-02T18:14:26.606Z,30.10
2022-08-02T18:16:53.829Z,30.20
2022-08-02T18:19:20.860Z,30.10
2022-08-02T18:21:48.547Z,30.00
2022-08-02T18:24:16.265Z,29.80
2022-08-02T18:26:43.709Z,29.50
2022-08-02T18:29:10.956Z,29.30
2022-08-02T18:31:40.170Z,29.30
2022-08-02T18:34:19.416Z,28.90
2022-08-02T18:36:51.362Z,28.50
2022-08-02T18:39:18.411Z,28.30
2022-08-02T18:41:48.079Z,28.10
2022-08-02T18:44:16.425Z,27.90
2022-08-02T18:46:44.169Z,28.00
2022-08-02T18:49:15.084Z,27.80
2022-08-02T18:51:58.392Z,27.40
2022-08-02T18:54:30.628Z,27.20
2022-08-02T18:57:00.939Z,27.00
2022-08-02T18:59:37.451Z,26.90
2022-08-02T19:02:04.855Z,26.70
2022-08-02T19:04:31.834Z,26.50
2022-08-02T19:07:07.418Z,26.40
2022-08-02T19:09:36.014Z,26.30
2022-08-02T19:12:07.503Z,26.20
2022-08-02T19:14:35.104Z,26.10
2022-08-02T19:17:54.453Z,26.00
2022-08-02T19:19:51.127Z,25.90
2022-08-02T19:22:26.897Z,25.80
2022-08-02T19:25:01.198Z,25.70
2022-08-02T19:27:32.676Z,25.50
2022-08-02T19:30:09.989Z,25.40
2022-08-02T19:32:59.492Z,25.30
2022-08-02T19:35:31.517Z,25.20
2022-08-02T19:38:10.007Z,25.00
2022-08-02T19:40:39.900Z,25.00
2022-08-02T19:44:24.793Z,25.10
2022-08-02T19:45:56.981Z,25.00
2022-08-02T19:48:25.333Z,24.80
2022-08-02T19:50:59.166Z,24.70
2022-08-02T19:53:46.935Z,24.70
2022-08-02T19:56:20.523Z,24.50
2022-08-02T19:58:52.116Z,24.10
2022-08-02T20:01:25.401Z,24.20
2022-08-02T20:03:55.581Z,24.10
2022-08-02T20:06:29.344Z,24.10
2022-08-02T20:08:59.015Z,24.00
2022-08-02T20:11:34.742Z,24.10
2022-08-02T20:14:04.771Z,24.20
2022-08-02T20:16:33.269Z,24.20
2022-08-02T20:19:02.549Z,24.30
2022-08-02T20:21:35.726Z,24.10
2022-08-02T20:24:09.318Z,23.80
2022-08-02T20:26:47.878Z,23.70
2022-08-02T20:29:17.538Z,23.70
2022-08-02T20:32:04.609Z,23.70
2022-08-02T20:34:31.635Z,23.50
2022-08-02T20:37:02.633Z,23.30
2022-08-02T20:39:48.176Z,23.30
2022-08-02T20:42:23.242Z,23.30
2022-08-02T20:44:55.116Z,23.10
2022-08-02T20:47:38.899Z,23.10
2022-08-02T20:50:30.756Z,23.00
2022-08-02T20:53:04.203Z,22.90
2022-08-02T20:55:32.113Z,22.90
2022-08-02T20:58:04.550Z,22.90
2022-08-02T21:00:32.807Z,22.90
2022-08-02T21:03:01.039Z,22.80
2022-08-02T21:05:54.610Z,22.80
2022-08-02T21:08:19.372Z,22.60
2022-08-02T21:10:52.128Z,22.60
2022-08-02T21:13:22.860Z,22.60
2022-08-02T21:15:52.067Z,22.60
2022-08-02T21:18:23.741Z,22.70
2022-08-02T21:21:00.303Z,22.60
2022-08-02T21:23:29.339Z,22.50
2022-08-02T21:25:58.033Z,22.40
2022-08-02T21:28:35.003Z,22.30
2022-08-02T21:31:12.418Z,22.20
2022-08-02T21:33:57.016Z,22.10
2022-08-02T21:36:32.201Z,21.90
2022-08-02T21:41:51.416Z,21.80
2022-08-02T21:44:20.668Z,21.80
2022-08-02T21:46:50.034Z,21.70
2022-08-02T21:49:27.195Z,21.60
2022-08-02T21:51:54.722Z,21.60
2022-08-02T21:54:22.099Z,21.70
2022-08-02T21:56:52.236Z,21.60
2022-08-02T21:59:26.045Z,21.50
2022-08-02T22:01:56.919Z,21.50
2022-08-02T22:04:26.079Z,21.40
2022-08-02T22:06:54.957Z,21.40
2022-08-02T22:09:43.147Z,21.40
2022-08-02T22:12:12.762Z,21.30
2022-08-02T22:14:49.661Z,21.20
2022-08-02T22:17:52.715Z,21.30
2022-08-02T22:22:57.762Z,21.30
2022-08-02T22:25:31.385Z,21.20
2022-08-02T22:28:38.991Z,21.20
2022-08-02T22:31:04.541Z,21.30
2022-08-02T22:34:01.203Z,21.30
2022-08-02T22:36:34.162Z,21.30
2022-08-02T22:39:02.121Z,21.00
2022-08-02T22:42:05.768Z,20.90
2022-08-02T22:44:18.845Z,20.70
2022-08-02T22:46:50.232Z,20.70
2022-08-02T22:49:38.862Z,20.60
2022-08-02T22:52:05.003Z,20.60
2022-08-02T22:54:32.762Z,20.60
2022-08-02T22:56:59.746Z,20.50
2022-08-02T22:59:11.781Z,21.40
2022-08-02T22:59:12.563Z,21.80
2022-08-02T22:59:39.517Z,20.50
2022-08-02T23:02:07.478Z,20.50
2022-08-02T23:04:34.481Z,20.40
2022-08-02T23:07:01.500Z,20.30
2022-08-02T23:09:28.820Z,20.20
2022-08-02T23:11:55.806Z,20.20
2022-08-02T23:14:22.829Z,20.20
2022-08-02T23:17:08.923Z,20.30
2022-08-02T23:19:50.963Z,20.20
2022-08-02T23:22:24.255Z,20.10
2022-08-02T23:24:57.462Z,20.20
2022-08-02T23:27:25.208Z,20.30
2022-08-02T23:29:52.326Z,20.10
2022-08-02T23:32:22.891Z,20.10
2022-08-02T23:34:53.011Z,20.10
2022-08-02T23:37:20.007Z,20.00
2022-08-02T23:39:47.050Z,19.90
2022-08-02T23:42:14.507Z,19.90
2022-08-02T23:44:41.751Z,19.80
2022-08-02T23:47:11.007Z,19.80
2022-08-02T23:49:38.249Z,19.80
2022-08-02T23:52:05.424Z,19.90
2022-08-02T23:54:32.483Z,19.80
2022-08-02T23:56:59.519Z,19.80
2022-08-02T23:59:26.681Z,19.80
